Baton Rouge, LA (70807)

10:58 PM CST on January 21, 2017 (GMT -0600)
Santa Maria | | Change Station
Active Advisory: Small Craft Advisory

Elev 26 ft 30.45 °N, 91.19 °W | Updated 29 seconds ago

Clear
Clear
69.6 °F
Feels Like 69.6 °F
N
2.7
Wind Variable Wind from SSW

Today
High -- | Low -- °F
--% Chance of Precip.
Yesterday
High -- | Low -- °F
Precip. -- in
Pressure 29.49 in
Visibility 5.0 miles
Clouds Clear
Dew Point 65 °F
Humidity 85%
Rainfall 1.15 in
Snow Depth Not available.
7:00 AM 5:31 PM
Waning Crescent, 29% visible
METAR KBTR 220453Z 23007KT 5SM BR CLR 21/19 A2949 RMK AO2 SLP986 T02060189 $
Pressure 29.49 in
Visibility 5.0 miles
Clouds Clear
Dew Point 65 °F
Humidity 85%
Rainfall 1.15 in
Snow Depth Not available.
7:00 AM 5:31 PM
Waning Crescent, 29% visible
METAR KBTR 220453Z 23007KT 5SM BR CLR 21/19 A2949 RMK AO2 SLP986 T02060189 $

Get Your Daily Forecast Email!

Thanks for signing up!

Be on the lookout for a verification email in your inbox.

You'll start receiving the daily forecast at 8 AM.

×

10-Day Weather Forecast

Almanac

Astronomy

Jan. 21, 2017 Rise Set
Actual Time
Civil Twilight
Nautical Twilight
Astronomical Twilight
Moon
Length of Visible Light
Length of Day
Tomorrow will be .
, % of the Moon is Illuminated

Today's Extremes

State Highs State Lows

Community

WunderPhotos

Upload Photos

1,962,540 photos uploaded!

WunderBlog® & News

Nearby

Air Quality

  Air Quality AQ Index Pollutant
Not available.

Snow Depth

Station Depth Elevation

Earthquake Activity

City Distance Mag. Time & Date
Minimum magnitude displayed is 2.5.

Coastal Water Temperatures

Place Temperature

Stations

Nearby Weather Stations

Station Location Temp. Windchill Dew Point Humidity Wind Precip. Elev Updated Type
                   

Watches & Warnings

Small Craft Advisory
Issued: 8:59 PM CST Jan. 21, 2017 – National Weather Service

... Small Craft Advisory remains in effect from 6 am Sunday to
6 am CST Monday...

* winds... 20 to 30 knots Sunday and Sunday night.

* Waves/seas... 4 to 6 feet.

Precautionary/preparedness actions...

A Small Craft Advisory means that wind speeds of 20 to 33 knots
are expected to produce hazardous wave conditions to small craft.
Inexperienced mariners... especially those operating smaller
vessels should avoid navigating in these conditions.